Time;durP1;ratioP1;P1;durP2;ratioP2;P2;SDS_P1;SDS_P2;PMS_P1;PMS_P2;Temp;Humidity;BMP_temperature;BMP_pressure;BME280_temperature;BME280_humidity;BME280_pressure;Samples;Min_cycle;Max_cycle;Signal;HPM_P1;HPM_P2
2022/04/16 00:02:15;;;;;;;10.80;9.70;;;;;;;5.30;72.07;101367.36;109818;1261;21967;-79
2022/04/16 00:05:08;;;;;;;11.20;9.70;;;;;;;5.30;72.07;101372.11;110067;1261;23074;-81
2022/04/16 00:08:06;;;;;;;10.50;9.40;;;;;;;5.29;72.06;101374.13;109950;1260;22026;-81
2022/04/16 00:10:54;;;;;;;13.10;10.40;;;;;;;5.29;72.15;101383.38;109777;1260;23610;-81
2022/04/16 00:13:29;;;;;;;12.50;9.20;;;;;;;5.30;72.00;101380.30;109218;1268;24475;-80
2022/04/16 00:15:59;;;;;;;9.70;8.40;;;;;;;5.30;71.83;101382.23;108939;1267;21968;-80
2022/04/16 00:18:28;;;;;;;9.60;8.70;;;;;;;5.28;71.63;101377.34;109227;1267;21987;-80
2022/04/16 00:20:58;;;;;;;10.20;9.00;;;;;;;5.25;71.65;101378.77;109315;1263;21988;-80
2022/04/16 00:23:27;;;;;;;11.40;9.40;;;;;;;5.23;71.74;101378.75;109840;1260;23783;-80
2022/04/16 00:26:00;;;;;;;12.20;8.90;;;;;;;5.26;71.93;101381.15;109332;1267;22108;-80
2022/04/16 00:28:30;;;;;;;8.40;7.60;;;;;;;5.32;72.01;101378.62;109258;1267;23026;-79
2022/04/16 00:31:02;;;;;;;8.70;7.20;;;;;;;5.35;71.80;101381.37;109492;1262;23597;-80
2022/04/16 00:33:33;;;;;;;8.20;7.40;;;;;;;5.35;71.66;101381.52;109552;1264;23633;-80
2022/04/16 00:36:03;;;;;;;9.20;7.30;;;;;;;5.35;71.52;101381.22;109756;1263;22001;-80
2022/04/16 00:38:32;;;;;;;9.60;7.70;;;;;;;5.34;71.48;101378.13;110352;1264;21940;-81
2022/04/16 00:41:15;;;;;;;8.90;7.10;;;;;;;5.34;71.47;101380.05;109740;1264;21963;-79
2022/04/16 00:44:10;;;;;;;8.30;7.00;;;;;;;5.34;71.39;101384.59;109780;1260;22087;-80
2022/04/16 00:46:43;;;;;;;8.80;6.80;;;;;;;5.34;71.47;101385.64;110586;1258;21960;-79
2022/04/16 00:49:12;;;;;;;7.30;6.40;;;;;;;5.35;71.29;101383.62;110188;1259;21971;-78
2022/04/16 00:51:46;;;;;;;6.70;5.60;;;;;;;5.35;71.24;101383.60;109898;1259;23039;-79
2022/04/16 00:54:16;;;;;;;6.80;6.20;;;;;;;5.37;71.29;101386.64;110072;1260;22350;-80
2022/04/16 00:56:45;;;;;;;11.30;7.10;;;;;;;5.37;71.11;101389.92;109756;1262;23120;-80
2022/04/16 00:59:15;;;;;;;8.50;7.30;;;;;;;5.35;71.02;101390.58;109798;1263;23079;-79
2022/04/16 01:01:56;;;;;;;10.80;7.50;;;;;;;5.35;71.06;101393.75;109953;1262;23111;-79
2022/04/16 01:04:26;;;;;;;8.30;7.40;;;;;;;5.37;71.14;101400.81;109776;1263;21980;-78
2022/04/16 01:07:08;;;;;;;;;;;;;;;;;;;;;
2022/04/16 01:10:29;;;;;;;8.30;7.00;;;;;;;5.32;70.87;101410.38;109772;1262;22770;-79
2022/04/16 01:13:01;;;;;;;7.50;6.20;;;;;;;5.27;70.86;101415.48;109909;1263;22007;-80
2022/04/16 01:15:34;;;;;;;8.40;6.90;;;;;;;5.22;70.71;101416.84;109532;1257;21968;-79
2022/04/16 01:18:07;;;;;;;8.40;7.20;;;;;;;5.18;70.69;101422.06;110655;1259;23104;-79
2022/04/16 01:20:38;;;;;;;8.20;7.30;;;;;;;5.14;70.56;101426.13;110093;1257;21969;-77
2022/04/16 01:23:13;;;;;;;7.90;7.20;;;;;;;5.11;70.51;101426.86;110231;1257;21965;-79
2022/04/16 01:25:42;;;;;;;;;;;;;;;5.09;70.48;101423.87;110674;1256;23048;-80
2022/04/16 01:28:17;;;;;;;8.20;7.40;;;;;;;5.01;70.74;101423.55;110456;1257;22071;-79
2022/04/16 01:30:52;;;;;;;10.90;8.20;;;;;;;5.02;70.77;101428.08;110441;1257;22919;-80
2022/04/16 01:33:22;;;;;;;9.80;8.80;;;;;;;5.04;70.70;101429.13;110189;1257;23121;-80
2022/04/16 01:35:56;;;;;;;10.30;8.80;;;;;;;5.07;70.69;101433.94;110351;1257;21965;-80
2022/04/16 01:38:26;;;;;;;10.20;8.90;;;;;;;5.07;70.64;101434.64;110695;1257;23680;-80
2022/04/16 01:40:59;;;;;;;9.00;8.10;;;;;;;5.09;70.68;101432.94;110353;1257;23586;-80
2022/04/16 01:43:38;;;;;;;8.50;7.60;;;;;;;5.10;70.60;101439.13;110269;1257;22010;-80
2022/04/16 01:46:10;;;;;;;10.00;8.40;;;;;;;5.10;70.46;101442.11;110391;1257;21958;-80
2022/04/16 01:49:04;;;;;;;;;;;;;;;;;;;;;
2022/04/16 01:51:43;;;;;;;10.10;8.30;;;;;;;5.10;70.41;101443.69;110399;1254;21971;-79
2022/04/16 01:54:15;;;;;;;9.30;8.30;;;;;;;5.10;70.36;101444.92;110946;1250;21977;-80
2022/04/16 01:56:44;;;;;;;10.20;8.50;;;;;;;5.12;70.36;101444.83;110719;1253;23692;-81
2022/04/16 01:59:14;;;;;;;10.40;8.40;;;;;;;5.11;70.23;101449.05;111096;1251;21978;-80
2022/04/16 02:01:45;;;;;;;10.50;9.50;;;;;;;5.12;70.16;101454.24;110875;1251;23665;-81
2022/04/16 02:04:27;;;;;;;10.40;9.30;;;;;;;5.11;70.12;101455.67;110968;1251;23538;-79
2022/04/16 02:06:59;;;;;;;10.10;9.10;;;;;;;5.10;70.11;101458.52;110453;1258;23034;-80
2022/04/16 02:09:32;;;;;;;11.50;10.40;;;;;;;5.12;70.09;101456.17;110315;1257;22438;-81
2022/04/16 02:12:07;;;;;;;;;;;;;;;5.14;70.07;101456.15;110042;1260;22028;-80
2022/04/16 02:14:39;;;;;;;10.30;9.00;;;;;;;5.09;70.15;101457.01;110062;1263;21965;-79
2022/04/16 02:17:08;;;;;;;9.50;8.60;;;;;;;5.08;69.99;101460.98;109158;1268;21979;-79
2022/04/16 02:19:51;;;;;;;10.10;9.10;;;;;;;5.03;69.80;101460.57;109291;1268;22085;-81
2022/04/16 02:22:41;;;;;;;9.70;8.10;;;;;;;5.01;69.93;101459.01;109292;1268;21988;-79
2022/04/16 02:25:43;;;;;;;9.90;8.50;;;;;;;4.97;69.99;101462.74;109728;1262;21997;-80
2022/04/16 02:28:33;;;;;;;8.30;7.40;;;;;;;4.96;69.96;101464.55;109670;1266;22000;-79
2022/04/16 02:31:04;;;;;;;11.90;7.00;;;;;;;4.97;69.80;101469.59;110207;1260;21984;-78
2022/04/16 02:33:38;;;;;;;8.30;6.20;;;;;;;4.99;69.82;101472.08;110218;1260;22648;-79
2022/04/16 02:36:11;;;;;;;9.60;6.50;;;;;;;5.00;69.76;101474.77;110723;1251;23559;-81
2022/04/16 02:38:42;;;;;;;8.70;6.90;;;;;;;4.99;69.76;101472.77;110932;1251;23572;-79
2022/04/16 02:41:18;;;;;;;7.80;6.60;;;;;;;4.97;69.64;101473.05;110892;1251;22921;-78
2022/04/16 02:44:00;;;;;;;9.70;6.80;;;;;;;4.92;69.61;101473.55;110540;1254;23035;-79
2022/04/16 02:49:20;;;;;;;13.50;6.50;;;;;;;4.89;69.60;101480.55;110373;1260;22125;-80
2022/04/16 02:51:55;;;;;;;7.90;6.00;;;;;;;4.88;69.68;101478.39;110048;1260;23647;-79
2022/04/16 02:54:25;;;;;;;9.10;6.50;;;;;;;4.86;69.57;101481.11;109180;1263;22310;-77
2022/04/16 02:56:57;;;;;;;8.00;6.40;;;;;;;4.84;69.64;101480.06;109042;1264;22190;-80
2022/04/16 02:59:29;;;;;;;7.40;5.90;;;;;;;4.81;69.62;101483.41;109569;1264;21969;-80
2022/04/16 03:01:59;;;;;;;6.50;5.80;;;;;;;4.78;69.48;101487.23;109506;1267;23420;-82
2022/04/16 03:04:30;;;;;;;8.30;5.90;;;;;;;4.76;69.46;101487.40;109065;1270;22096;-80
2022/04/16 03:07:12;;;;;;;8.00;5.90;;;;;;;4.77;69.58;101490.14;109168;1270;22529;-81
2022/04/16 03:09:52;;;;;;;8.00;5.80;;;;;;;4.76;69.64;101493.33;108871;1270;22010;-80
2022/04/16 03:12:22;;;;;;;9.50;6.60;;;;;;;4.73;69.71;101495.08;109145;1270;23625;-80
2022/04/16 03:17:39;;;;;;;8.10;5.40;;;;;;;4.70;69.65;101502.46;109504;1266;21991;-79
2022/04/16 03:20:09;;;;;;;8.00;5.80;;;;;;;4.73;69.74;101510.80;109917;1260;23611;-80
2022/04/16 03:22:43;;;;;;;7.00;5.10;;;;;;;4.77;69.72;101509.14;109415;1263;23619;-80
2022/04/16 03:25:15;;;;;;;6.90;5.30;;;;;;;4.79;69.66;101514.45;110119;1262;22092;-84
2022/04/16 03:27:45;;;;;;;7.50;5.00;;;;;;;4.78;69.59;101520.27;110053;1261;21980;-81
2022/04/16 03:30:37;;;;;;;;;;;;;;;;;;;;;
2022/04/16 03:33:39;;;;;;;6.40;5.40;;;;;;;4.78;69.72;101527.02;109329;1267;23017;-80
2022/04/16 03:36:34;;;;;;;10.00;5.70;;;;;;;4.83;69.83;101531.96;109154;1267;22013;-80
2022/04/16 03:39:38;;;;;;;8.50;5.70;;;;;;;4.90;69.80;101537.80;110066;1260;22759;-80
2022/04/16 03:42:11;;;;;;;9.80;6.50;;;;;;;4.88;69.59;101539.29;110256;1259;21970;-80
2022/04/16 03:44:40;;;;;;;9.00;5.40;;;;;;;4.87;69.54;101540.58;110366;1257;23084;-79
2022/04/16 03:47:13;;;;;;;13.30;6.40;;;;;;;4.87;69.50;101544.58;110281;1257;22036;-81
2022/04/16 03:50:00;;;;;;;6.30;5.70;;;;;;;4.90;69.52;101547.52;110278;1260;21976;-81
2022/04/16 03:53:47;;;;;;;7.10;5.40;;;;;;;4.94;69.39;101551.48;109946;1262;21964;-80
2022/04/16 04:01:05;;;;;;;;;;;;;;;;;;;;;
2022/04/16 04:04:30;;;;;;;;;;;;;;;;;;;;;
2022/04/16 04:07:32;;;;;;;6.50;5.40;;;;;;;4.79;69.45;101571.83;109046;1267;21973;-78
2022/04/16 04:11:17;;;;;;;7.30;4.80;;;;;;;4.80;69.37;101577.19;108887;1266;23691;-76
2022/04/16 04:14:12;;;;;;;7.00;5.90;;;;;;;4.83;69.40;101576.14;108890;1267;21988;-77
2022/04/16 04:17:06;;;;;;;6.60;5.90;;;;;;;4.80;69.27;101582.79;109299;1267;25092;-78
2022/04/16 04:19:47;;;;;;;8.00;6.40;;;;;;;4.78;69.25;101585.02;108772;1273;22771;-79
2022/04/16 04:22:17;;;;;;;6.50;5.50;;;;;;;4.76;69.17;101584.08;108799;1273;22240;-78
2022/04/16 04:24:52;;;;;;;10.20;5.40;;;;;;;4.76;69.10;101585.46;108840;1267;23113;-78
2022/04/16 04:27:29;;;;;;;6.00;5.00;;;;;;;4.77;68.95;101588.56;108969;1267;24610;-77
2022/04/16 04:30:38;;;;;;;7.60;5.80;;;;;;;4.74;68.99;101590.47;108454;1276;24024;-77
2022/04/16 04:34:00;;;;;;;7.70;6.60;;;;;;;4.70;68.99;101598.75;108636;1275;21993;-78
2022/04/16 04:36:45;;;;;;;4.30;3.90;;;;;;;4.65;68.96;101608.35;108663;1274;22759;-77
2022/04/16 04:39:15;;;;;;;7.00;3.70;;;;;;;4.64;68.95;101612.44;109212;1267;23767;-78
2022/04/16 04:41:46;;;;;;;6.10;3.80;;;;;;;4.67;68.88;101612.75;109169;1264;21990;-77
2022/04/16 04:44:30;;;;;;;;;;;;;;;;;;;;;
2022/04/16 04:47:11;;;;;;;6.60;4.70;;;;;;;4.74;68.65;101624.00;108921;1270;21975;-78
2022/04/16 04:50:01;;;;;;;7.10;4.30;;;;;;;4.72;68.51;101632.13;109340;1264;21942;-78
2022/04/16 04:52:58;;;;;;;6.50;3.70;;;;;;;4.70;68.41;101636.83;110218;1257;21980;-77
2022/04/16 04:55:58;;;;;;;7.50;4.10;;;;;;;4.64;68.43;101642.43;110292;1257;23733;-77
2022/04/16 04:58:29;;;;;;;6.60;4.20;;;;;;;4.63;68.42;101646.70;110241;1257;23587;-77
2022/04/16 05:01:12;;;;;;;7.20;4.50;;;;;;;4.63;68.34;101648.40;110198;1257;21950;-77
2022/04/16 05:03:50;;;;;;;4.30;3.60;;;;;;;4.65;68.23;101653.36;109868;1257;21927;-78
2022/04/16 05:06:20;;;;;;;5.50;3.90;;;;;;;4.67;68.29;101662.14;110174;1257;21971;-78
2022/04/16 05:08:51;;;;;;;5.10;3.20;;;;;;;4.70;68.21;101667.53;109752;1259;21966;-77
2022/04/16 05:11:32;;;;;;;5.90;3.70;;;;;;;4.72;68.18;101667.89;109796;1263;22029;-77
2022/04/16 05:14:11;;;;;;;6.30;3.40;;;;;;;4.79;68.51;101677.23;109685;1260;23813;-77
2022/04/16 05:16:41;;;;;;;5.00;3.30;;;;;;;4.90;68.58;101675.66;109541;1260;23593;-78
2022/04/16 05:19:32;;;;;;;;;;;;;;;;;;;;;
2022/04/16 05:23:06;;;;;;;5.60;3.40;;;;;;;5.22;68.23;101685.33;109941;1260;22445;-80
2022/04/16 05:26:45;;;;;;;5.70;3.70;;;;;;;5.36;68.19;101688.55;109548;1264;22091;-78
2022/04/16 05:29:24;;;;;;;4.70;3.40;;;;;;;5.53;68.11;101694.77;109677;1259;21984;-78
2022/04/16 05:31:58;;;;;;;4.10;2.80;;;;;;;5.74;67.96;101699.84;110011;1257;23011;-79
2022/04/16 05:34:32;;;;;;;3.40;3.10;;;;;;;5.89;67.12;101702.65;110595;1251;21963;-80
2022/04/16 05:37:47;;;;;;;;;;;;;;;;;;;;;
2022/04/16 05:40:20;;;;;;;4.50;3.00;;;;;;;5.98;65.27;101710.48;110632;1251;21942;-79
2022/04/16 05:43:18;;;;;;;7.00;3.60;;;;;;;5.92;64.34;101712.63;110989;1248;22414;-78
2022/04/16 05:45:55;;;;;;;13.70;9.40;;;;;;;5.86;64.33;101709.48;110598;1251;23745;-79
2022/04/16 05:48:24;;;;;;;10.30;7.10;;;;;;;5.91;64.65;101713.90;110619;1254;22745;-76
2022/04/16 05:50:57;;;;;;;4.30;3.60;;;;;;;6.18;66.33;101710.86;110575;1254;22763;-76
2022/04/16 05:53:28;;;;;;;8.30;4.40;;;;;;;6.60;66.86;101714.37;110767;1251;23624;-77
2022/04/16 05:56:15;;;;;;;5.70;2.80;;;;;;;6.92;66.04;101721.41;110076;1258;23011;-76
2022/04/16 05:58:45;;;;;;;3.90;2.70;;;;;;;7.21;65.49;101722.09;110215;1257;22746;-76
2022/04/16 06:01:18;;;;;;;3.40;2.70;;;;;;;7.46;64.86;101720.57;109394;1264;23078;-77
2022/04/16 06:03:49;;;;;;;;;;;;;;;7.65;63.23;101718.29;109579;1263;22262;-77
2022/04/16 06:06:21;;;;;;;8.30;4.30;;;;;;;7.69;62.72;101725.20;109720;1264;23059;-79
2022/04/16 06:08:56;;;;;;;4.80;2.40;;;;;;;7.90;62.87;101721.45;108704;1270;21985;-77
2022/04/16 06:11:28;;;;;;;;;;;;;;;8.17;62.12;101720.97;108905;1270;21986;-78
2022/04/16 06:13:58;;;;;;;5.10;3.30;;;;;;;8.25;60.53;101720.04;108459;1273;23096;-77
2022/04/16 06:16:32;;;;;;;3.70;2.70;;;;;;;8.30;60.08;101721.21;108392;1273;22027;-78
2022/04/16 06:19:07;;;;;;;4.60;2.50;;;;;;;8.58;60.77;101725.86;108596;1270;22038;-77
2022/04/16 06:21:38;;;;;;;3.40;2.50;;;;;;;8.79;59.50;101729.67;109266;1262;21979;-77
2022/04/16 06:24:11;;;;;;;3.30;2.20;;;;;;;8.92;58.46;101731.09;109258;1262;22735;-77
2022/04/16 06:26:43;;;;;;;4.70;2.90;;;;;;;8.96;57.47;101726.40;109651;1257;24378;-77
2022/04/16 06:29:15;;;;;;;3.60;2.40;;;;;;;9.00;57.05;101731.17;109972;1257;21968;-77
2022/04/16 06:31:49;;;;;;;4.90;3.70;;;;;;;9.17;57.35;101732.23;110446;1251;22729;-77
2022/04/16 06:34:27;;;;;;;3.60;2.40;;;;;;;9.24;55.99;101732.42;110061;1256;22047;-77
2022/04/16 06:36:56;;;;;;;3.50;2.90;;;;;;;9.24;55.42;101734.02;110324;1256;24360;-77
2022/04/16 06:39:26;;;;;;;5.40;3.00;;;;;;;9.21;54.92;101732.79;110295;1259;23100;-78
2022/04/16 06:41:55;;;;;;;4.70;2.60;;;;;;;9.36;55.78;101735.62;110059;1257;24273;-78
2022/04/16 06:44:24;;;;;;;8.10;3.30;;;;;;;9.59;55.33;101734.70;109973;1257;21973;-77
2022/04/16 06:46:54;;;;;;;3.10;2.20;;;;;;;9.76;54.78;101738.61;110320;1257;21976;-77
2022/04/16 06:49:28;;;;;;;3.80;2.40;;;;;;;9.94;54.01;101742.41;110311;1257;23754;-78
2022/04/16 06:51:59;;;;;;;3.50;2.50;;;;;;;10.02;53.21;101744.84;110326;1251;21972;-76
2022/04/16 06:54:28;;;;;;;3.90;2.50;;;;;;;10.00;51.93;101746.81;110607;1252;23759;-77
2022/04/16 06:56:57;;;;;;;7.90;4.70;;;;;;;9.78;51.08;101747.29;110759;1250;22192;-77
2022/04/16 06:59:29;;;;;;;3.30;2.20;;;;;;;9.58;51.31;101750.18;110844;1250;21978;-78
2022/04/16 07:02:05;;;;;;;3.00;2.20;;;;;;;9.59;52.53;101752.13;110830;1250;22421;-77
2022/04/16 07:04:37;;;;;;;5.10;2.80;;;;;;;9.68;52.15;101753.22;110833;1250;23010;-77
2022/04/16 07:07:08;;;;;;;4.50;2.50;;;;;;;9.72;52.17;101752.33;110781;1250;23037;-78
2022/04/16 07:09:40;;;;;;;5.10;2.80;;;;;;;10.01;53.26;101749.94;110436;1254;21968;-77
2022/04/16 07:12:10;;;;;;;2.90;2.10;;;;;;;10.42;52.94;101751.52;110531;1254;23388;-77
2022/04/16 07:14:40;;;;;;;3.40;1.90;;;;;;;10.50;50.29;101746.60;110373;1255;22384;-77
2022/04/16 07:17:09;;;;;;;3.50;2.20;;;;;;;10.40;49.83;101748.52;110587;1254;21992;-77
2022/04/16 07:19:38;;;;;;;3.10;2.40;;;;;;;10.49;49.97;101748.44;110369;1254;21987;-77
2022/04/16 07:22:21;;;;;;;4.10;2.20;;;;;;;10.62;49.59;101749.75;110492;1254;21991;-78
2022/04/16 07:25:07;;;;;;;2.70;1.80;;;;;;;10.74;48.85;101752.10;110480;1254;22039;-78
2022/04/16 07:27:38;;;;;;;3.40;1.90;;;;;;;10.83;48.68;101760.64;110444;1254;22747;-77
2022/04/16 07:30:07;;;;;;;2.90;1.80;;;;;;;10.92;48.10;101758.42;110329;1254;22424;-77
2022/04/16 07:32:36;;;;;;;3.30;2.20;;;;;;;11.01;47.60;101759.05;110638;1254;21970;-78
2022/04/16 07:35:06;;;;;;;2.70;2.30;;;;;;;11.10;47.76;101761.09;110745;1250;21954;-77
2022/04/16 07:37:35;;;;;;;4.60;1.70;;;;;;;11.17;46.73;101770.35;110755;1252;22165;-77
2022/04/16 07:40:06;;;;;;;2.90;1.50;;;;;;;11.08;46.08;101762.44;110639;1250;21976;-77
2022/04/16 07:42:35;;;;;;;4.40;2.50;;;;;;;11.20;46.36;101765.12;110809;1251;21974;-77
2022/04/16 07:45:07;;;;;;;3.00;1.30;;;;;;;11.38;46.09;101773.89;110516;1254;23577;-77
2022/04/16 07:47:36;;;;;;;2.30;1.70;;;;;;;11.18;44.07;101769.30;110519;1254;21984;-77
2022/04/16 07:50:06;;;;;;;2.80;1.70;;;;;;;10.75;43.43;101770.99;110481;1254;23082;-77
2022/04/16 07:52:35;;;;;;;1.70;1.40;;;;;;;10.43;44.41;101778.58;110317;1254;21993;-77
2022/04/16 07:55:05;;;;;;;3.00;1.60;;;;;;;10.42;44.87;101775.83;110566;1255;21976;-77
2022/04/16 07:57:34;;;;;;;4.00;1.70;;;;;;;10.54;45.08;101778.67;110360;1254;235095;-78
2022/04/16 08:00:08;;;;;;;3.00;1.50;;;;;;;10.72;44.70;101775.00;110554;1254;21968;-78
2022/04/16 08:02:40;;;;;;;3.10;1.80;;;;;;;10.90;44.43;101780.33;110482;1254;21968;-77
2022/04/16 08:05:09;;;;;;;3.00;2.00;;;;;;;11.04;44.24;101778.52;110419;1254;23740;-79
2022/04/16 08:07:38;;;;;;;3.70;1.80;;;;;;;11.21;44.36;101781.23;110428;1254;21959;-80
2022/04/16 08:10:25;;;;;;;;;;;;;;;;;;;;;
2022/04/16 08:12:54;;;;;;;2.10;1.50;;;;;;;11.56;43.14;101791.28;110514;1257;22700;-80
2022/04/16 08:15:23;;;;;;;2.80;2.10;;;;;;;11.46;42.57;101796.59;110678;1257;22027;-78
2022/04/16 08:18:00;;;;;;;3.10;1.90;;;;;;;11.48;43.17;101797.18;109437;1262;22328;-78
2022/04/16 08:20:29;;;;;;;4.50;1.60;;;;;;;11.62;43.22;101795.56;109524;1267;21992;-79
2022/04/16 08:23:04;;;;;;;4.50;2.80;;;;;;;11.90;43.67;101792.62;109235;1265;21977;-79
2022/04/16 08:28:09;;;;;;;2.90;2.20;;;;;;;12.54;41.83;101797.48;109223;1267;21979;-81
2022/04/16 08:30:38;;;;;;;4.60;3.00;;;;;;;12.66;41.81;101793.89;109504;1264;21970;-80
2022/04/16 08:33:14;;;;;;;3.50;2.40;;;;;;;13.07;42.43;101799.09;109203;1267;22034;-80
2022/04/16 08:35:45;;;;;;;2.90;2.20;;;;;;;13.51;41.19;101799.08;109077;1261;21971;-80
2022/04/16 08:38:19;;;;;;;2.10;1.50;;;;;;;13.74;40.17;101804.16;110216;1254;23692;-79
2022/04/16 08:40:50;;;;;;;2.80;1.20;;;;;;;13.83;38.71;101807.95;110417;1254;21962;-79
2022/04/16 08:43:23;;;;;;;2.30;1.60;;;;;;;13.76;37.99;101805.64;110573;1254;22888;-78
2022/04/16 08:45:57;;;;;;;3.70;1.40;;;;;;;13.82;38.07;101807.15;110305;1254;23073;-79
2022/04/16 08:48:32;;;;;;;3.60;2.10;;;;;;;13.84;37.36;101805.48;110500;1254;22064;-80
2022/04/16 08:51:06;;;;;;;2.90;2.20;;;;;;;13.63;36.91;101809.05;110655;1249;21982;-79
2022/04/16 08:53:38;;;;;;;4.50;2.10;;;;;;;13.70;38.25;101807.98;111035;1248;21961;-78
2022/04/16 08:56:09;;;;;;;2.70;1.80;;;;;;;14.00;38.24;101809.79;110788;1250;21953;-78
2022/04/16 08:58:39;;;;;;;4.20;1.80;;;;;;;14.27;37.76;101809.48;110826;1247;22022;-80
2022/04/16 09:01:09;;;;;;;7.40;2.00;;;;;;;14.42;37.10;101810.49;110890;1247;21949;-79
2022/04/16 09:03:41;;;;;;;2.80;1.80;;;;;;;14.52;36.62;101808.52;110816;1251;21982;-79
2022/04/16 09:06:23;;;;;;;2.70;1.60;;;;;;;14.51;36.06;101810.74;110848;1247;21916;-79
2022/04/16 09:08:55;;;;;;;3.00;1.50;;;;;;;14.27;34.92;101811.41;110906;1251;21960;-81
2022/04/16 09:11:25;;;;;;;7.00;6.10;;;;;;;13.68;34.51;101820.17;110878;1247;21992;-80
2022/04/16 09:13:58;;;;;;;2.90;1.80;;;;;;;13.04;34.92;101828.06;110742;1251;23744;-79
2022/04/16 09:16:31;;;;;;;2.60;1.40;;;;;;;12.83;36.68;101822.75;110602;1251;21960;-78
2022/04/16 09:19:01;;;;;;;2.80;1.40;;;;;;;12.93;36.96;101820.28;110869;1248;22727;-80
2022/04/16 09:21:30;;;;;;;4.50;3.50;;;;;;;12.95;36.78;101826.75;110882;1247;24430;-79
2022/04/16 09:24:13;;;;;;;2.50;1.50;;;;;;;13.09;36.93;101824.91;110794;1248;21965;-78
2022/04/16 09:26:42;;;;;;;3.20;1.80;;;;;;;13.13;36.55;101826.09;110790;1250;23029;-78
2022/04/16 09:29:14;;;;;;;5.30;2.00;;;;;;;13.27;36.82;101825.08;110695;1251;21960;-76
2022/04/16 09:31:49;;;;;;;;;;;;;;;13.43;36.28;101822.71;110764;1250;22981;-77
2022/04/16 09:34:25;;;;;;;5.60;3.40;;;;;;;13.30;35.77;101827.89;111197;1249;23594;-75
2022/04/16 09:36:55;;;;;;;6.00;2.20;;;;;;;13.15;35.70;101834.02;110838;1248;22058;-76
2022/04/16 09:39:25;;;;;;;2.20;1.80;;;;;;;12.88;35.51;101843.06;110987;1248;23616;-77
2022/04/16 09:41:54;;;;;;;3.50;2.50;;;;;;;12.79;36.62;101836.65;110391;1254;24362;-78
2022/04/16 09:44:28;;;;;;;2.60;1.70;;;;;;;12.96;36.90;101832.55;110461;1254;22361;-77
2022/04/16 09:46:57;;;;;;;3.80;1.60;;;;;;;12.94;35.62;101836.64;110639;1254;22270;-76
2022/04/16 09:49:26;;;;;;;3.00;2.00;;;;;;;12.45;34.84;101841.95;110403;1254;23705;-76
2022/04/16 09:51:57;;;;;;;3.50;2.40;;;;;;;11.93;35.68;101837.55;110253;1254;24382;-76
2022/04/16 09:54:27;;;;;;;5.50;2.80;;;;;;;11.90;37.25;101835.95;110370;1254;23748;-78
2022/04/16 09:57:01;;;;;;;4.40;2.30;;;;;;;11.96;37.23;101839.08;110467;1254;22265;-78
2022/04/16 09:59:35;;;;;;;4.10;2.10;;;;;;;12.10;37.71;101848.56;110568;1250;22417;-77
2022/04/16 10:02:04;;;;;;;3.20;1.90;;;;;;;12.32;37.40;101854.34;110926;1250;21962;-77
2022/04/16 10:04:33;;;;;;;3.20;2.20;;;;;;;12.39;36.92;101856.81;110938;1250;22064;-77
2022/04/16 10:07:03;;;;;;;6.30;4.30;;;;;;;12.53;37.03;101847.42;111041;1248;21953;-77
2022/04/16 10:09:41;;;;;;;3.70;2.60;;;;;;;12.54;35.86;101852.41;110885;1250;22752;-78
2022/04/16 10:14:56;;;;;;;2.40;1.40;;;;;;;12.20;35.80;101854.68;110916;1250;22972;-77
2022/04/16 10:17:32;;;;;;;6.20;3.00;;;;;;;12.30;36.90;101853.77;111222;1247;22116;-77
2022/04/16 10:20:31;;;;;;;4.60;2.50;;;;;;;12.60;36.96;101857.15;110903;1248;22014;-77
2022/04/16 10:23:07;;;;;;;3.90;2.00;;;;;;;12.96;36.88;101851.59;110497;1256;22022;-77
2022/04/16 10:25:41;;;;;;;3.30;1.80;;;;;;;13.06;35.76;101858.98;110424;1256;23795;-77
2022/04/16 10:28:23;;;;;;;2.90;1.70;;;;;;;13.03;35.48;101853.82;109958;1259;23684;-77
2022/04/16 10:30:55;;;;;;;5.30;1.60;;;;;;;13.21;35.78;101853.84;109530;1264;23787;-77
2022/04/16 10:33:27;;;;;;;;;;;;;;;13.43;35.41;101846.75;109233;1265;21979;-77
2022/04/16 10:36:09;;;;;;;4.80;2.10;;;;;;;13.21;34.26;101844.64;109263;1266;21979;-77
2022/04/16 10:38:40;;;;;;;3.30;1.90;;;;;;;12.82;34.13;101850.66;109498;1265;21992;-77
2022/04/16 10:41:17;;;;;;;3.20;1.70;;;;;;;12.41;35.24;101853.11;108896;1270;21994;-76
2022/04/16 10:44:01;;;;;;;4.00;2.60;;;;;;;12.37;36.20;101849.23;108716;1270;22989;-77
2022/04/16 10:46:40;;;;;;;3.40;1.60;;;;;;;12.34;36.48;101858.15;109004;1267;23709;-78
2022/04/16 10:49:17;;;;;;;3.40;2.20;;;;;;;12.30;35.81;101853.64;109526;1260;22027;-78
2022/04/16 10:51:47;;;;;;;4.00;2.20;;;;;;;12.21;35.71;101863.97;109680;1262;22000;-77
2022/04/16 10:54:37;;;;;;;2.70;1.30;;;;;;;12.02;35.45;101861.81;109832;1260;21974;-78
2022/04/16 10:57:10;;;;;;;3.40;1.60;;;;;;;11.93;35.81;101863.23;109828;1261;23626;-78
2022/04/16 10:59:45;;;;;;;2.20;1.40;;;;;;;11.89;35.58;101855.58;109978;1252;22732;-78
2022/04/16 11:02:28;;;;;;;3.00;1.60;;;;;;;11.68;35.16;101856.25;110821;1251;22024;-76
2022/04/16 11:05:05;;;;;;;3.10;1.70;;;;;;;11.39;35.46;101861.11;110411;1255;23106;-77
2022/04/16 11:07:38;;;;;;;3.50;1.50;;;;;;;11.20;35.96;101852.25;110182;1257;23855;-79
2022/04/16 11:10:11;;;;;;;2.00;1.40;;;;;;;11.07;36.11;101855.69;110118;1256;23004;-80
2022/04/16 11:12:43;;;;;;;6.00;2.10;;;;;;;10.99;36.62;101852.29;110481;1255;21980;-78
2022/04/16 11:15:24;;;;;;;;;;;;;;;10.97;36.84;101856.84;109803;1258;23073;-77
2022/04/16 11:17:55;;;;;;;2.60;1.60;;;;;;;10.81;36.95;101857.17;110290;1258;22076;-79
2022/04/16 11:20:30;;;;;;;4.10;1.80;;;;;;;10.73;36.94;101854.91;109200;1267;21973;-76
2022/04/16 11:23:10;;;;;;;3.50;1.80;;;;;;;10.65;37.20;101863.02;109270;1264;23696;-76
2022/04/16 11:34:24;;;;;;;3.90;2.10;;;;;;;10.88;37.75;101863.88;109154;1267;23817;-76
2022/04/16 11:37:13;;;;;;;3.10;2.30;;;;;;;10.82;37.44;101863.05;109359;1264;23574;-77
2022/04/16 11:39:42;;;;;;;4.70;2.00;;;;;;;10.75;37.38;101868.83;109857;1258;22309;-79
2022/04/16 11:42:12;;;;;;;3.00;2.40;;;;;;;10.70;37.72;101866.42;110574;1251;23096;-77
2022/04/16 11:44:46;;;;;;;6.50;2.50;;;;;;;10.72;38.01;101873.50;110307;1255;23049;-76
2022/04/16 11:47:20;;;;;;;2.50;1.80;;;;;;;10.60;37.35;101875.77;110405;1255;23083;-78
2022/04/16 11:49:57;;;;;;;5.30;2.80;;;;;;;10.44;37.59;101871.52;109974;1260;23589;-79
2022/04/16 11:52:31;;;;;;;7.20;2.10;;;;;;;10.51;38.44;101875.58;109676;1260;24401;-77
2022/04/16 11:55:22;;;;;;;3.20;1.60;;;;;;;10.64;38.00;101869.46;109650;1261;21980;-80
2022/04/16 11:57:59;;;;;;;2.70;1.60;;;;;;;10.67;37.54;101870.05;109791;1260;21972;-78
2022/04/16 12:00:31;;;;;;;3.80;2.40;;;;;;;10.70;37.44;101868.75;109446;1263;21995;-79
2022/04/16 12:03:05;;;;;;;5.20;2.10;;;;;;;10.70;37.44;101860.94;109588;1260;24402;-79
2022/04/16 12:05:38;;;;;;;4.40;2.10;;;;;;;10.76;37.83;101862.95;110590;1256;21974;-79
2022/04/16 12:08:11;;;;;;;13.30;3.20;;;;;;;10.74;37.52;101861.34;110469;1251;23022;-78
2022/04/16 12:10:47;;;;;;;3.00;2.10;;;;;;;10.74;37.63;101868.36;110829;1251;21967;-78
2022/04/16 12:13:19;;;;;;;3.90;1.70;;;;;;;10.73;37.32;101875.53;110578;1251;23795;-82
2022/04/16 12:15:49;;;;;;;18.80;17.30;;;;;;;10.66;37.23;101869.95;110790;1251;23764;-81
2022/04/16 12:18:19;;;;;;;3.70;2.20;;;;;;;10.72;37.42;101866.78;110465;1251;22423;-78
2022/04/16 12:20:48;;;;;;;3.70;2.00;;;;;;;10.82;37.24;101855.70;110678;1251;21995;-79
2022/04/16 12:23:25;;;;;;;6.60;2.40;;;;;;;10.89;37.13;101858.60;110885;1254;22003;-77
2022/04/16 12:26:09;;;;;;;5.40;1.80;;;;;;;10.94;36.83;101868.08;111024;1250;24346;-79
2022/04/16 12:28:43;;;;;;;7.40;2.30;;;;;;;10.84;36.37;101867.71;110648;1251;21976;-78
2022/04/16 12:31:30;;;;;;;5.10;3.40;;;;;;;10.81;36.60;101861.79;110676;1250;21969;-79
2022/04/16 12:33:59;;;;;;;4.00;1.90;;;;;;;10.83;36.56;101864.20;110641;1256;21954;-79
2022/04/16 12:36:28;;;;;;;3.40;2.00;;;;;;;10.85;36.32;101864.29;110447;1256;23127;-79
2022/04/16 12:39:03;;;;;;;3.40;2.10;;;;;;;10.77;36.05;101862.61;109853;1261;21969;-78
2022/04/16 12:41:32;;;;;;;4.80;2.00;;;;;;;10.73;36.14;101866.54;109681;1260;22119;-77
2022/04/16 12:44:01;;;;;;;4.50;2.20;;;;;;;10.73;36.39;101864.77;109363;1263;24355;-77